Emma T — WDF3197 — position and weather

sailwx.info

Track history (hours):
 
Tides and Currents Weather Stations Pressure Air Temp Water Temp Dewpoint Dewpoint Depression Visibility Wind Speed Wind Dir Waves Ship Positions

Emma T

Owner: Star Maritime, LLC, Shoreline, WA. More information available from US FCC via Universal Licensing System and Coast Guard Vessel Documentation Center.

Last reported at 2017-Sep-28 18:43 UTC. Time now 2017-Nov-18 04:45 UTC.
Position N 48°35' W 122°39'.
Warning: this ship's position is 50 days out of date.

Length 10 m.

Type: Pleasure craft. MMSI: 366525000.

Date/timePositionNaut miles runAvg speedWind from/ knotsBaromVisibWave heightAir tempDewpointWater temp
2017-Sep-28 18:43N 48°35' W 122°39'4 3.6
2017-Sep-28 17:40N 48°32' W 122°44'0 0.4
2017-Sep-28 17:23N 48°32' W 122°44'0 0.1
2017-Sep-28 17:00N 48°32' W 122°44'0 0.8
2017-Sep-28 16:27N 48°32' W 122°44'  
2017-Sep-24 22:22N 48°31' W 122°43'2 4.1
2017-Sep-24 22:00N 48°32' W 122°44'0 0.3
2017-Sep-24 21:30N 48°32' W 122°44'4 8.4
2017-Sep-24 21:00N 48°33' W 122°50'815.9
2017-Sep-24 20:30N 48°27' W 122°58'3 5.8
2017-Sep-24 20:00N 48°27' W 123°02'0 0.0
2017-Sep-24 19:19N 48°27' W 123°02'0 0.0
2017-Sep-24 16:39N 48°27' W 123°02'0 0.3
2017-Sep-24 16:23N 48°27' W 123°02'0 0.4
2017-Sep-24 15:57N 48°27' W 123°02'0 0.1
2017-Sep-24 15:27N 48°27' W 123°02'3 7.3
2017-Sep-24 15:00N 48°28' W 122°57'3 0.2
2017-Sep-23 19:41N 48°31' W 122°55'6 0.1
2017-Sep-21 18:39N 48°25' W 122°53'4 2.1
2017-Sep-21 16:45N 48°27' W 122°59'  
Track history (hours):
 
Tides and Currents Weather Stations Pressure Air Temp Water Temp Dewpoint Dewpoint Depression Visibility Wind Speed Wind Dir Waves Ship Positions

Emma T

Owner: Star Maritime, LLC, Shoreline, WA. More information available from US FCC via Universal Licensing System and Coast Guard Vessel Documentation Center.

Last reported at 2017-Sep-28 18:43 UTC. Time now 2017-Nov-18 04:45 UTC.
Position N 48°35' W 122°39'.
Warning: this ship's position is 50 days out of date.

Length 10 m.

Type: Pleasure craft. MMSI: 366525000.

Date/timePositionNaut miles runAvg speedWind from/ knotsBaromVisibWave heightAir tempDewpointWater temp
2017-Sep-28 18:43N 48°35' W 122°39'4 3.6
2017-Sep-28 17:40N 48°32' W 122°44'0 0.4
2017-Sep-28 17:23N 48°32' W 122°44'0 0.1
2017-Sep-28 17:00N 48°32' W 122°44'0 0.8
2017-Sep-28 16:27N 48°32' W 122°44'  
2017-Sep-24 22:22N 48°31' W 122°43'2 4.1
2017-Sep-24 22:00N 48°32' W 122°44'0 0.3
2017-Sep-24 21:30N 48°32' W 122°44'4 8.4
2017-Sep-24 21:00N 48°33' W 122°50'815.9
2017-Sep-24 20:30N 48°27' W 122°58'3 5.8
2017-Sep-24 20:00N 48°27' W 123°02'0 0.0
2017-Sep-24 19:19N 48°27' W 123°02'0 0.0
2017-Sep-24 16:39N 48°27' W 123°02'0 0.3
2017-Sep-24 16:23N 48°27' W 123°02'0 0.4
2017-Sep-24 15:57N 48°27' W 123°02'0 0.1
2017-Sep-24 15:27N 48°27' W 123°02'3 7.3
2017-Sep-24 15:00N 48°28' W 122°57'3 0.2
2017-Sep-23 19:41N 48°31' W 122°55'6 0.1
2017-Sep-21 18:39N 48°25' W 122°53'4 2.1
2017-Sep-21 16:45N 48°27' W 122°59'  

Dump ship's entire track history